Time;durP1;ratioP1;P1;durP2;ratioP2;P2;SDS_P1;SDS_P2;PMS_P1;PMS_P2;Temp;Humidity;BMP_temperature;BMP_pressure;BME280_temperature;BME280_humidity;BME280_pressure;Samples;Min_cycle;Max_cycle;Signal;HPM_P1;HPM_P2
2023/03/05 00:01:36;;;;;;;;;64.00;51.00;;;;;8.72;48.06;101860.56;5012226;28;45428;-71
2023/03/05 00:04:04;;;;;;;;;40.50;32.50;;;;;8.74;48.16;101858.84;4999334;28;47994;-71
2023/03/05 00:06:31;;;;;;;;;34.75;31.75;;;;;8.75;47.98;101854.47;5034658;28;45245;-71
2023/03/05 00:08:57;;;;;;;;;39.50;33.50;;;;;8.72;48.04;101860.56;5019647;28;45365;-71
2023/03/05 00:11:24;;;;;;;;;39.25;33.50;;;;;8.74;48.12;101858.84;5019364;28;45589;-70
2023/03/05 00:13:53;;;;;;;;;39.75;32.50;;;;;8.74;48.56;101863.19;5019477;28;46059;-71
2023/03/05 00:16:19;;;;;;;;;37.75;33.00;;;;;8.69;48.08;101857.03;5019434;28;45322;-70
2023/03/05 00:18:45;;;;;;;;;33.00;32.00;;;;;8.72;48.10;101854.47;5019654;28;45216;-71
2023/03/05 00:21:21;;;;;;;;;30.00;27.00;;;;;8.72;48.26;101854.47;5018405;28;45304;-70
2023/03/05 00:23:47;;;;;;;;;39.25;32.00;;;;;8.71;48.41;101848.31;5018343;28;48518;-71
2023/03/05 00:26:12;;;;;;;;;31.00;30.75;;;;;8.71;48.18;101844.81;5018022;28;45902;-71
2023/03/05 00:28:37;;;;;;;;;42.00;34.00;;;;;8.72;48.22;101849.22;5019450;28;45312;-71
2023/03/05 00:31:03;;;;;;;;;37.00;32.00;;;;;8.70;48.23;101854.41;5019344;28;45253;-70
2023/03/05 00:33:28;;;;;;;;;40.00;30.75;;;;;8.68;48.30;101843.06;5019192;28;45388;-70
2023/03/05 00:35:54;;;;;;;;;36.25;33.50;;;;;8.70;48.26;101843.06;5019343;28;45365;-71
2023/03/05 00:38:19;;;;;;;;;35.00;31.00;;;;;8.67;48.31;101838.66;5019367;28;45274;-71
2023/03/05 00:40:44;;;;;;;;;37.00;30.00;;;;;8.71;48.33;101852.69;5017604;28;45260;-71
2023/03/05 00:43:10;;;;;;;;;38.50;31.75;;;;;8.70;48.25;101848.31;5017739;28;56159;-70
2023/03/05 00:45:35;;;;;;;;;34.25;30.00;;;;;8.70;48.09;101849.16;5006248;28;45311;-70
2023/03/05 00:48:01;;;;;;;;;35.25;31.75;;;;;8.68;48.31;101842.16;5018815;28;45245;-70
2023/03/05 00:50:27;;;;;;;;;33.75;29.25;;;;;8.66;48.10;101833.41;5019116;28;45274;-70
2023/03/05 00:52:53;;;;;;;;;35.25;30.50;;;;;8.67;48.00;101836.03;5019105;28;45357;-70
2023/03/05 00:55:19;;;;;;;;;30.50;29.50;;;;;8.70;48.32;101840.44;5019014;28;45242;-70
2023/03/05 00:57:44;;;;;;;;;26.00;25.25;;;;;8.69;48.22;101841.28;5019125;28;45227;-71
2023/03/05 01:00:12;;;;;;;;;28.00;28.00;;;;;8.64;48.16;101828.16;5019060;28;45247;-70
2023/03/05 01:02:37;;;;;;;;;35.00;30.25;;;;;8.68;48.27;101831.66;5007330;28;45291;-71
2023/03/05 01:05:04;;;;;;;;;29.75;28.50;;;;;8.67;48.44;101827.31;5011991;28;47084;-70
2023/03/05 01:07:29;;;;;;;;;37.00;30.50;;;;;8.67;48.52;101825.56;5019029;28;45302;-70
2023/03/05 01:09:54;;;;;;;;;36.00;30.00;;;;;8.64;48.48;101820.31;5017600;28;45314;-70
2023/03/05 01:12:20;;;;;;;;;32.50;29.75;;;;;8.66;48.49;101815.06;5018771;28;46087;-70
2023/03/05 01:14:45;;;;;;;;;32.00;27.50;;;;;8.66;48.39;101822.94;5017591;28;45415;-70
2023/03/05 01:17:10;;;;;;;;;29.00;26.25;;;;;8.65;48.69;101819.41;5018182;28;45223;-71
2023/03/05 01:19:36;;;;;;;;;31.25;28.50;;;;;8.66;48.75;101815.06;5019021;28;45239;-70
2023/03/05 01:22:02;;;;;;;;;30.00;25.50;;;;;8.66;48.88;101815.94;5018698;28;45241;-70
2023/03/05 01:24:28;;;;;;;;;30.50;27.25;;;;;8.66;48.65;101808.06;5018526;28;45420;-70
2023/03/05 01:26:54;;;;;;;;;29.00;28.25;;;;;8.63;48.61;101805.44;5034145;28;45274;-72
2023/03/05 01:29:19;;;;;;;;;27.25;25.25;;;;;8.62;48.91;101815.03;5017511;28;45384;-71
2023/03/05 01:31:45;;;;;;;;;32.25;26.25;;;;;8.65;48.53;101808.94;5018485;28;46499;-71
2023/03/05 01:34:10;;;;;;;;;26.50;25.25;;;;;8.61;48.77;101804.53;5017450;28;45308;-71
2023/03/05 01:36:35;;;;;;;;;30.25;27.50;;;;;8.62;48.88;101799.31;5018739;28;45376;-71
2023/03/05 01:39:01;;;;;;;;;23.00;21.50;;;;;8.60;48.74;101793.19;5017078;28;47184;-71
2023/03/05 01:41:27;;;;;;;;;23.75;22.75;;;;;8.59;48.85;101791.41;5015933;28;46097;-71
2023/03/05 01:43:52;;;;;;;;;28.25;24.00;;;;;8.62;48.76;101796.69;5018559;28;45305;-71
2023/03/05 01:46:27;;;;;;;;;24.50;24.50;;;;;8.61;49.07;101784.44;5004595;28;45919;-71
2023/03/05 01:49:17;;;;;;;;;24.00;19.25;;;;;8.61;48.49;101781.81;5017126;28;45580;-71
2023/03/05 01:52:00;;;;;;;;;24.75;22.50;;;;;8.61;49.11;101773.09;5018758;28;45471;-71
2023/03/05 01:54:32;;;;;;;;;26.75;25.50;;;;;8.59;48.87;101769.56;5018209;28;45264;-71
2023/03/05 01:57:03;;;;;;;;;19.00;19.00;;;;;8.59;49.11;101770.47;5018701;28;45348;-71
2023/03/05 01:59:29;;;;;;;;;29.00;23.25;;;;;8.57;49.03;101766.06;5018360;27;45535;-71
2023/03/05 02:01:57;;;;;;;;;26.75;24.25;;;;;8.58;49.03;101762.59;5012408;28;46058;-71
2023/03/05 02:04:31;;;;;;;;;27.00;24.50;;;;;8.58;49.10;101762.59;5020754;28;45284;-70
2023/03/05 02:06:56;;;;;;;;;30.00;23.00;;;;;8.58;49.57;101758.22;5018408;28;45371;-71
2023/03/05 02:09:22;;;;;;;;;20.50;18.50;;;;;8.60;48.94;101759.13;5018136;28;45360;-71
2023/03/05 02:11:48;;;;;;;;;28.50;27.00;;;;;8.59;49.13;101756.47;5018195;28;45256;-71
2023/03/05 02:14:14;;;;;;;;;27.50;24.25;;;;;8.58;49.15;101752.09;5018224;28;45279;-70
2023/03/05 02:16:40;;;;;;;;;25.50;25.25;;;;;8.56;49.31;101751.22;5017900;28;47087;-71
2023/03/05 02:19:09;;;;;;;;;27.75;23.00;;;;;8.59;49.14;101743.34;5018212;28;45486;-70
2023/03/05 02:21:44;;;;;;;;;25.50;21.50;;;;;8.60;49.14;101752.97;5018236;28;45223;-71
2023/03/05 02:24:15;;;;;;;;;30.50;27.75;;;;;8.59;49.35;101748.59;5032727;28;45435;-71
2023/03/05 02:26:43;;;;;;;;;28.50;23.75;;;;;8.56;49.43;101740.72;5018109;28;45336;-71
2023/03/05 02:29:11;;;;;;;;;27.50;24.25;;;;;8.57;49.41;101734.63;5016642;28;45262;-71
2023/03/05 02:31:37;;;;;;;;;25.00;23.00;;;;;8.57;49.39;101735.50;5017694;28;46437;-71
2023/03/05 02:34:03;;;;;;;;;24.50;22.75;;;;;8.53;49.21;101728.47;5018111;28;45341;-71
2023/03/05 02:36:28;;;;;;;;;24.50;23.00;;;;;8.57;49.50;101725.00;5018021;28;45379;-71
2023/03/05 02:38:55;;;;;;;;;26.75;24.00;;;;;8.53;48.97;101717.09;5017699;28;45474;-71
2023/03/05 02:41:22;;;;;;;;;23.50;23.50;;;;;8.57;49.30;101716.28;5015575;28;45365;-71
2023/03/05 02:43:47;;;;;;;;;30.00;27.75;;;;;8.54;49.40;101714.50;5017925;28;45244;-71
2023/03/05 02:46:12;;;;;;;;;26.50;22.50;;;;;8.55;49.34;101710.13;5004037;28;45233;-70
2023/03/05 02:48:38;;;;;;;;;28.00;25.75;;;;;8.54;49.67;101706.66;5017708;28;45434;-71
2023/03/05 02:51:05;;;;;;;;;27.25;24.50;;;;;8.56;49.56;101710.16;5016208;28;45452;-71
2023/03/05 02:53:30;;;;;;;;;23.00;21.75;;;;;8.55;49.64;101705.78;5017773;28;45302;-70
2023/03/05 02:55:56;;;;;;;;;26.25;24.25;;;;;8.57;49.62;101700.56;5017479;28;45446;-70
2023/03/05 02:58:22;;;;;;;;;31.75;29.50;;;;;8.56;49.72;101699.66;5017837;28;45500;-71
2023/03/05 03:00:47;;;;;;;;;29.25;28.50;;;;;8.54;49.51;101698.78;5017137;28;46024;-71
2023/03/05 03:03:13;;;;;;;;;28.50;26.25;;;;;8.53;49.38;101697.03;5000036;28;45322;-71
2023/03/05 03:05:38;;;;;;;;;26.00;24.25;;;;;8.55;50.00;101689.19;5013472;28;45342;-71
2023/03/05 03:08:04;;;;;;;;;26.50;25.25;;;;;8.56;49.68;101690.94;5017509;28;45363;-71
2023/03/05 03:10:29;;;;;;;;;26.25;23.50;;;;;8.56;49.80;101690.94;5017272;28;46364;-71
2023/03/05 03:12:55;;;;;;;;;29.75;28.25;;;;;8.55;49.77;101681.31;5017469;28;45408;-71
2023/03/05 03:15:20;;;;;;;;;28.75;26.25;;;;;8.52;49.59;101687.41;5017260;28;45302;-71
2023/03/05 03:17:46;;;;;;;;;35.75;29.25;;;;;8.55;49.84;101684.84;5017694;28;45310;-71
2023/03/05 03:20:14;;;;;;;;;26.00;23.75;;;;;8.54;49.92;101685.69;5017109;28;46066;-71
2023/03/05 03:22:40;;;;;;;;;31.00;26.50;;;;;8.52;49.83;101673.44;5017453;28;45239;-71
2023/03/05 03:25:06;;;;;;;;;30.50;28.00;;;;;8.52;50.03;101673.44;5017148;28;45283;-71
2023/03/05 03:27:32;;;;;;;;;33.00;27.25;;;;;8.53;49.98;101667.31;5017351;28;45376;-71
2023/03/05 03:30:01;;;;;;;;;25.50;23.50;;;;;8.52;49.88;101669.06;5017009;28;45496;-71
2023/03/05 03:32:27;;;;;;;;;29.50;28.00;;;;;8.49;49.80;101665.53;5017095;28;45227;-71
2023/03/05 03:34:52;;;;;;;;;29.50;26.50;;;;;8.51;50.17;101669.94;5015911;28;45254;-71
2023/03/05 03:37:18;;;;;;;;;30.75;27.75;;;;;8.50;50.27;101667.31;5016712;28;45321;-71
2023/03/05 03:39:43;;;;;;;;;28.00;24.50;;;;;8.48;50.17;101661.16;5016327;28;46294;-71
2023/03/05 03:42:08;;;;;;;;;31.25;27.00;;;;;8.48;50.28;101655.91;5014805;28;45389;-71
2023/03/05 03:44:34;;;;;;;;;30.25;25.75;;;;;8.51;49.83;101658.59;5012570;28;45209;-71
2023/03/05 03:46:59;;;;;;;;;29.00;26.00;;;;;8.49;50.08;101655.97;5006251;28;45446;-71
2023/03/05 03:49:25;;;;;;;;;31.00;27.00;;;;;8.47;49.89;101648.94;5016634;28;45219;-71
2023/03/05 03:51:53;;;;;;;;;28.75;24.50;;;;;8.50;50.23;101648.97;5016990;28;45226;-70
2023/03/05 03:54:20;;;;;;;;;32.50;29.00;;;;;8.47;50.31;101649.81;5016738;28;45333;-71
2023/03/05 03:56:46;;;;;;;;;33.75;32.50;;;;;8.48;50.34;101645.44;5016763;28;45413;-71
2023/03/05 03:59:12;;;;;;;;;32.00;28.75;;;;;8.47;50.37;101647.19;5016610;28;45345;-70
2023/03/05 04:01:37;;;;;;;;;34.25;30.25;;;;;8.47;50.31;101639.34;5013180;28;45277;-71
2023/03/05 04:04:04;;;;;;;;;30.75;24.25;;;;;8.48;50.49;101634.97;5001716;28;45244;-70
2023/03/05 04:06:29;;;;;;;;;33.00;29.50;;;;;8.47;50.15;101628.88;5016547;28;45354;-71
2023/03/05 04:08:55;;;;;;;;;26.75;25.50;;;;;8.44;50.33;101631.44;5016301;28;45246;-71
2023/03/05 04:11:20;;;;;;;;;33.75;28.75;;;;;8.47;50.17;101630.63;5017560;28;45238;-70
2023/03/05 04:13:46;;;;;;;;;35.50;29.50;;;;;8.44;50.16;101627.06;5016800;28;45228;-70
2023/03/05 04:16:13;;;;;;;;;35.75;31.50;;;;;8.46;50.36;101627.09;5016323;28;45507;-71
2023/03/05 04:18:38;;;;;;;;;31.25;28.50;;;;;8.43;50.23;101619.19;5016217;28;46048;-71
2023/03/05 04:21:04;;;;;;;;;30.25;27.25;;;;;8.43;50.43;101624.44;5015155;28;45366;-71
2023/03/05 04:23:29;;;;;;;;;28.75;27.50;;;;;8.41;50.25;101624.41;5016438;28;45386;-71
2023/03/05 04:25:55;;;;;;;;;27.75;27.75;;;;;8.42;50.59;101631.41;5016233;28;45406;-71
2023/03/05 04:28:20;;;;;;;;;33.75;30.50;;;;;8.42;50.44;101627.91;5014302;28;47180;-72
2023/03/05 04:30:45;;;;;;;;;35.25;32.00;;;;;8.41;50.45;101629.63;5016296;28;45356;-71
2023/03/05 04:33:11;;;;;;;;;22.00;20.75;;;;;8.42;50.61;101630.53;5016388;28;45245;-71
2023/03/05 04:35:36;;;;;;;;;26.00;25.25;;;;;8.42;50.52;101620.06;5031692;28;45684;-71
2023/03/05 04:38:01;;;;;;;;;25.25;24.00;;;;;8.40;50.44;101622.66;5016146;28;45401;-71
2023/03/05 04:40:27;;;;;;;;;27.75;24.75;;;;;8.38;50.41;101616.53;5016106;28;45220;-71
2023/03/05 04:42:52;;;;;;;;;30.00;25.50;;;;;8.41;50.50;101621.78;5014093;28;45384;-71
2023/03/05 04:45:18;;;;;;;;;28.00;21.50;;;;;8.37;50.55;101608.66;5005573;28;45219;-71
2023/03/05 04:47:43;;;;;;;;;32.50;28.50;;;;;8.37;50.74;101612.16;5014238;28;46912;-71
2023/03/05 04:50:10;;;;;;;;;35.25;30.50;;;;;8.38;50.46;101611.28;5014784;28;45404;-71
2023/03/05 04:52:39;;;;;;;;;30.50;28.50;;;;;8.36;50.60;101599.91;5017747;28;45218;-71
2023/03/05 04:55:04;;;;;;;;;29.75;25.00;;;;;8.38;50.73;101613.91;5017785;28;45482;-71
2023/03/05 04:57:30;;;;;;;;;30.50;25.75;;;;;8.31;50.62;101591.13;5018912;27;45461;-71
2023/03/05 04:59:55;;;;;;;;;28.50;25.00;;;;;8.36;50.65;101597.28;5018945;28;46936;-71
2023/03/05 05:02:20;;;;;;;;;27.50;27.00;;;;;8.37;50.53;101598.19;5009952;28;45325;-71
2023/03/05 05:04:46;;;;;;;;;24.00;22.75;;;;;8.35;51.15;101592.94;5009963;28;45300;-71
2023/03/05 05:07:11;;;;;;;;;29.75;24.25;;;;;8.35;50.61;101592.03;5018846;28;45253;-71
2023/03/05 05:09:38;;;;;;;;;32.00;27.75;;;;;8.36;50.68;101592.06;5018913;28;45235;-71
2023/03/05 05:12:04;;;;;;;;;30.75;27.50;;;;;8.35;50.88;101586.81;5017717;28;45226;-71
2023/03/05 05:14:29;;;;;;;;;28.25;24.00;;;;;8.34;51.01;101585.94;5017716;28;45785;-71
2023/03/05 05:16:54;;;;;;;;;27.00;23.25;;;;;8.36;50.86;101586.81;5018405;28;49548;-71
2023/03/05 05:19:20;;;;;;;;;28.00;25.75;;;;;8.30;50.73;101576.28;5017081;28;45507;-71
2023/03/05 05:21:45;;;;;;;;;28.00;24.75;;;;;8.36;50.67;101588.56;5017638;28;45209;-71
2023/03/05 05:24:10;;;;;;;;;29.00;26.25;;;;;8.35;50.74;101582.47;5018789;28;45270;-70
2023/03/05 05:26:36;;;;;;;;;29.50;24.50;;;;;8.36;50.79;101578.09;5018684;28;45509;-70
2023/03/05 05:29:01;;;;;;;;;27.25;22.50;;;;;8.36;50.84;101572.84;5018634;28;45471;-71
2023/03/05 05:31:26;;;;;;;;;23.25;21.00;;;;;8.33;50.79;101564.94;5018653;28;45463;-70
2023/03/05 05:33:52;;;;;;;;;27.75;27.25;;;;;8.30;51.02;101566.69;5018854;28;45493;-70
2023/03/05 05:36:18;;;;;;;;;26.00;24.25;;;;;8.32;50.92;101566.72;5018509;28;50539;-71
2023/03/05 05:38:44;;;;;;;;;30.50;24.25;;;;;8.34;51.07;101569.34;5018592;28;45526;-71
2023/03/05 05:41:13;;;;;;;;;28.50;24.25;;;;;8.33;50.98;101570.19;5015114;28;45339;-70
2023/03/05 05:43:39;;;;;;;;;23.00;19.50;;;;;8.28;51.03;101559.69;5033901;28;45247;-71
2023/03/05 05:46:07;;;;;;;;;27.75;25.25;;;;;8.32;51.15;101568.47;5004808;28;45223;-71
2023/03/05 05:48:34;;;;;;;;;30.00;29.00;;;;;8.32;51.08;101576.31;5018376;28;45351;-71
2023/03/05 05:51:05;;;;;;;;;23.00;21.25;;;;;8.32;51.32;101568.47;5033709;28;45291;-70
2023/03/05 05:53:30;;;;;;;;;28.25;24.75;;;;;8.31;51.52;101570.19;5017220;28;45342;-71
2023/03/05 05:55:56;;;;;;;;;36.50;30.25;;;;;8.29;50.91;101564.94;5018386;28;46140;-71
2023/03/05 05:58:21;;;;;;;;;25.25;24.25;;;;;8.29;50.97;101562.31;5019022;28;46748;-71
2023/03/05 06:00:46;;;;;;;;;27.50;22.00;;;;;8.29;51.07;101558.84;5018066;28;45246;-71
2023/03/05 06:03:12;;;;;;;;;30.00;23.25;;;;;8.30;50.97;101560.56;5002032;28;45438;-71
2023/03/05 06:05:37;;;;;;;;;23.50;19.25;;;;;8.27;51.08;101555.31;5015318;28;45365;-71
2023/03/05 06:08:03;;;;;;;;;23.00;20.75;;;;;8.28;51.15;101555.31;5018460;28;45332;-71
2023/03/05 06:10:28;;;;;;;;;24.00;21.50;;;;;8.28;51.11;101563.19;5018232;28;45443;-71
2023/03/05 06:12:54;;;;;;;;;30.50;26.00;;;;;8.27;51.10;101555.31;5018331;28;45259;-71
2023/03/05 06:15:19;;;;;;;;;27.75;25.00;;;;;8.28;51.21;101559.69;5017758;28;46192;-71
2023/03/05 06:17:46;;;;;;;;;26.00;22.25;;;;;8.29;51.32;101558.84;5016665;28;45347;-71
2023/03/05 06:20:12;;;;;;;;;26.75;23.75;;;;;8.25;51.28;101555.31;5018180;28;45393;-71
2023/03/05 06:22:38;;;;;;;;;27.25;22.00;;;;;8.26;51.55;101556.19;5018272;28;45447;-71
2023/03/05 06:25:05;;;;;;;;;31.00;26.50;;;;;8.28;51.27;101557.09;5016355;28;47077;-71
2023/03/05 06:27:30;;;;;;;;;26.50;25.25;;;;;8.28;50.90;101554.47;5018172;28;45248;-71
2023/03/05 06:29:55;;;;;;;;;31.50;24.25;;;;;8.25;50.90;101557.03;5017973;28;45270;-71
2023/03/05 06:32:22;;;;;;;;;17.00;15.25;;;;;8.26;51.34;101556.19;5016541;28;52136;-71
2023/03/05 06:34:47;;;;;;;;;24.50;22.00;;;;;8.25;51.61;101557.94;5017840;28;45460;-70
2023/03/05 06:37:13;;;;;;;;;23.75;22.00;;;;;8.28;51.22;101554.47;5018168;28;45353;-70
2023/03/05 06:39:38;;;;;;;;;26.25;19.00;;;;;8.23;51.27;101551.78;5017873;28;45402;-70
2023/03/05 06:42:04;;;;;;;;;29.50;23.25;;;;;8.27;51.35;101560.56;5015986;28;45450;-70
2023/03/05 06:44:29;;;;;;;;;28.50;26.25;;;;;8.26;51.51;101566.66;5013970;28;45998;-70
2023/03/05 06:46:54;;;;;;;;;25.25;21.50;;;;;8.23;50.94;101556.16;5008095;28;45333;-71
2023/03/05 06:49:19;;;;;;;;;22.25;20.75;;;;;8.25;51.31;101560.56;5017647;28;45346;-70
2023/03/05 06:51:45;;;;;;;;;30.50;24.00;;;;;8.25;51.37;101565.78;5016528;28;45351;-72
2023/03/05 06:54:13;;;;;;;;;30.25;23.50;;;;;8.25;51.40;101557.94;5017202;28;51077;-72
2023/03/05 06:56:42;;;;;;;;;20.50;17.25;;;;;8.21;51.29;101558.75;5017878;28;45321;-70
2023/03/05 06:59:08;;;;;;;;;26.50;23.25;;;;;8.25;51.61;101555.31;5016412;28;45374;-72
2023/03/05 07:01:34;;;;;;;;;23.00;20.25;;;;;8.22;51.41;101550.03;5014907;28;45272;-71
2023/03/05 07:04:01;;;;;;;;;26.75;22.00;;;;;8.26;51.51;101550.94;5001674;28;45987;-70
2023/03/05 07:06:28;;;;;;;;;24.25;21.00;;;;;8.25;51.65;101550.06;5016347;28;45306;-72
2023/03/05 07:08:55;;;;;;;;;33.25;30.50;;;;;8.24;51.67;101550.06;5017358;28;45211;-72
2023/03/05 07:11:21;;;;;;;;;31.50;28.50;;;;;8.25;51.47;101554.41;5017710;28;45534;-72
2023/03/05 07:13:47;;;;;;;;;29.25;22.25;;;;;8.26;51.60;101558.78;5017461;28;45360;-71
2023/03/05 07:16:15;;;;;;;;;24.25;20.00;;;;;8.25;51.59;101555.31;5015319;28;45386;-71
2023/03/05 07:18:41;;;;;;;;;28.75;20.50;;;;;8.25;51.64;101551.81;5017486;28;45329;-72
2023/03/05 07:21:07;;;;;;;;;28.25;23.25;;;;;8.27;51.74;101552.69;5017616;28;45411;-71
2023/03/05 07:23:34;;;;;;;;;28.25;25.00;;;;;8.25;51.39;101549.19;5017238;28;45277;-71
2023/03/05 07:26:01;;;;;;;;;27.00;21.50;;;;;8.23;51.56;101551.78;5017293;28;45151;-71
2023/03/05 07:28:26;;;;;;;;;25.00;22.25;;;;;8.29;51.73;101556.22;5017244;28;45363;-72
2023/03/05 07:31:01;;;;;;;;;27.00;23.50;;;;;8.27;51.52;101555.31;5017135;28;45227;-71
2023/03/05 07:33:27;;;;;;;;;24.25;18.25;;;;;8.27;51.43;101552.69;5017073;28;45690;-72
2023/03/05 07:35:52;;;;;;;;;21.25;19.00;;;;;8.29;51.81;101564.06;5017296;28;45520;-71
2023/03/05 07:38:18;;;;;;;;;22.00;22.00;;;;;8.25;51.91;101557.03;5016075;28;45339;-71
2023/03/05 07:40:43;;;;;;;;;22.25;18.00;;;;;8.29;51.72;101564.06;5015581;28;45352;-71
2023/03/05 07:43:09;;;;;;;;;20.75;16.50;;;;;8.29;51.69;101562.31;5016624;28;46080;-71
2023/03/05 07:45:38;;;;;;;;;20.00;17.00;;;;;8.30;51.68;101561.47;5004376;28;45308;-71
2023/03/05 07:48:03;;;;;;;;;19.50;17.00;;;;;8.33;51.70;101564.94;5016912;28;45251;-71
2023/03/05 07:50:29;;;;;;;;;17.25;15.00;;;;;8.29;51.36;101551.84;5016906;28;45478;-71
2023/03/05 07:52:54;;;;;;;;;22.50;18.75;;;;;8.34;51.74;101561.47;5016609;28;45247;-71
2023/03/05 07:55:20;;;;;;;;;22.00;19.25;;;;;8.34;51.88;101564.09;5016691;28;45259;-71
2023/03/05 07:57:45;;;;;;;;;17.75;15.00;;;;;8.31;52.02;101551.84;5017076;28;45540;-71
2023/03/05 08:00:11;;;;;;;;;17.25;15.00;;;;;8.36;51.90;101563.25;5016524;28;45530;-71
2023/03/05 08:02:36;;;;;;;;;21.00;18.25;;;;;8.35;51.83;101564.13;5005359;28;46359;-71
2023/03/05 08:05:02;;;;;;;;;19.00;18.00;;;;;8.36;51.89;101562.38;5009119;28;53190;-72
2023/03/05 08:07:27;;;;;;;;;19.25;16.50;;;;;8.40;51.84;101564.16;5015407;28;45266;-71
2023/03/05 08:09:52;;;;;;;;;21.75;20.50;;;;;8.37;52.14;101553.66;5016742;28;45328;-71
2023/03/05 08:12:18;;;;;;;;;33.25;29.75;;;;;8.38;51.92;101551.03;5016492;28;45370;-71
2023/03/05 08:14:43;;;;;;;;;33.00;28.75;;;;;8.42;51.93;101555.44;5016729;28;45380;-72
2023/03/05 08:17:08;;;;;;;;;25.25;21.25;;;;;8.41;51.84;101544.94;5016031;28;45487;-72
2023/03/05 08:19:34;;;;;;;;;25.75;20.75;;;;;8.45;52.20;101558.09;5015241;28;45343;-72
2023/03/05 08:21:59;;;;;;;;;27.25;24.00;;;;;8.46;51.94;101553.75;5016373;28;45403;-71
2023/03/05 08:24:28;;;;;;;;;24.75;22.50;;;;;8.45;51.84;101547.63;5014730;28;52239;-72
2023/03/05 08:26:54;;;;;;;;;28.00;24.00;;;;;8.49;51.96;101545.03;5017140;28;45290;-71
2023/03/05 08:29:19;;;;;;;;;31.25;27.25;;;;;8.50;52.07;101538.94;5018366;28;45437;-71
2023/03/05 08:31:46;;;;;;;;;25.75;23.50;;;;;8.55;52.14;101550.31;5017840;28;47248;-72
2023/03/05 08:34:11;;;;;;;;;27.25;23.25;;;;;8.57;51.84;101546.84;5018240;28;45274;-71
2023/03/05 08:36:36;;;;;;;;;28.25;25.00;;;;;8.59;51.86;101536.38;5019557;28;45310;-71
2023/03/05 08:39:02;;;;;;;;;28.25;23.50;;;;;8.57;52.03;101533.75;5019444;28;45340;-72
2023/03/05 08:41:28;;;;;;;;;21.75;19.25;;;;;8.61;52.13;101532.03;5016977;28;45412;-72
2023/03/05 08:43:53;;;;;;;;;26.25;21.50;;;;;8.61;52.16;101532.88;5018166;28;45311;-71
2023/03/05 08:46:19;;;;;;;;;28.25;19.50;;;;;8.71;51.81;101539.06;5003592;28;45482;-71
2023/03/05 08:48:44;;;;;;;;;19.00;16.75;;;;;8.74;52.16;101539.13;5019336;28;45318;-71
2023/03/05 08:51:12;;;;;;;;;19.25;15.75;;;;;8.80;51.86;101537.41;5019096;28;45906;-71
2023/03/05 08:53:38;;;;;;;;;24.00;21.75;;;;;8.82;52.08;101540.88;5019300;28;45329;-72
2023/03/05 08:56:04;;;;;;;;;21.25;20.25;;;;;8.85;52.13;101533.06;5018036;28;45336;-72
2023/03/05 08:58:30;;;;;;;;;23.75;22.50;;;;;8.86;52.18;101532.19;5019170;28;45530;-71
2023/03/05 09:00:55;;;;;;;;;21.50;18.75;;;;;8.88;51.93;101528.72;5018915;28;45206;-71
2023/03/05 09:03:21;;;;;;;;;23.00;19.25;;;;;8.95;52.17;101532.22;5001946;28;45241;-72
2023/03/05 09:05:46;;;;;;;;;20.50;19.25;;;;;8.96;52.10;101526.13;5017126;28;45491;-71
2023/03/05 09:08:11;;;;;;;;;23.25;19.25;;;;;8.97;52.01;101532.22;5019162;28;45484;-71
2023/03/05 09:10:37;;;;;;;;;24.75;22.50;;;;;9.03;52.57;101532.25;5014489;28;45463;-71
2023/03/05 09:13:03;;;;;;;;;27.00;22.25;;;;;9.02;51.94;101525.25;4999116;28;45259;-72
2023/03/05 09:15:28;;;;;;;;;25.00;21.00;;;;;9.08;52.25;101527.91;5015891;28;45291;-72
2023/03/05 09:17:53;;;;;;;;;24.00;21.75;;;;;9.11;52.12;101526.19;5017811;28;45330;-72
2023/03/05 09:20:19;;;;;;;;;33.75;24.00;;;;;9.05;52.12;101520.03;5018680;28;49230;-72
2023/03/05 09:22:44;;;;;;;;;25.75;21.75;;;;;9.16;52.27;101531.47;5017460;28;45415;-71
2023/03/05 09:25:11;;;;;;;;;22.25;18.50;;;;;9.18;51.92;101529.72;5018736;28;45368;-72
2023/03/05 09:27:37;;;;;;;;;25.25;23.00;;;;;9.21;52.25;101521.00;5017469;28;46152;-72
2023/03/05 09:30:04;;;;;;;;;24.00;22.00;;;;;9.25;52.19;101522.75;5033656;28;47487;-72
2023/03/05 09:32:29;;;;;;;;;21.00;18.50;;;;;9.26;52.03;101522.75;5018680;28;45171;-72
2023/03/05 09:34:54;;;;;;;;;18.25;17.50;;;;;9.30;51.84;101512.28;5018741;28;45483;-72
2023/03/05 09:37:20;;;;;;;;;18.00;15.00;;;;;9.30;51.98;101507.03;5018289;28;45298;-72
2023/03/05 09:39:45;;;;;;;;;39.75;31.50;;;;;9.31;52.01;101504.41;5018564;28;45380;-71
2023/03/05 09:42:48;;;;;;;;;23.50;19.50;;;;;9.37;51.96;101508.78;5015470;28;45242;-71
2023/03/05 09:45:26;;;;;;;;;25.50;22.25;;;;;9.36;52.16;101499.19;5008803;28;45171;-71
2023/03/05 09:48:19;;;;;;;;;25.25;23.50;;;;;9.42;52.29;101507.06;5016435;28;45377;-72
2023/03/05 09:50:53;;;;;;;;;24.00;22.25;;;;;9.44;51.97;101495.69;5018478;28;45239;-71
2023/03/05 09:53:27;;;;;;;;;24.00;19.00;;;;;9.48;51.83;101499.19;5018722;28;45310;-71
2023/03/05 09:55:54;;;;;;;;;22.00;20.00;;;;;9.49;51.89;101492.22;5018155;28;45201;-71
2023/03/05 09:58:40;;;;;;;;;22.75;22.50;;;;;9.52;52.01;101487.88;5018413;28;45181;-71
2023/03/05 10:01:19;;;;;;;;;23.75;21.50;;;;;9.54;51.98;101487.84;5016880;28;46497;-71
2023/03/05 10:04:00;;;;;;;;;23.50;21.75;;;;;9.56;51.96;101480.88;5041498;28;45313;-71
2023/03/05 10:06:35;;;;;;;;;23.50;22.50;;;;;9.57;52.05;101474.72;5018575;28;45169;-71
2023/03/05 10:09:10;;;;;;;;;24.50;22.00;;;;;9.60;51.72;101473.00;5018038;28;45280;-71
2023/03/05 10:11:38;;;;;;;;;24.75;22.00;;;;;9.64;51.71;101470.38;5018046;28;46313;-71
2023/03/05 10:14:06;;;;;;;;;26.75;24.50;;;;;9.62;51.79;101456.38;5018271;28;45442;-71
2023/03/05 10:16:54;;;;;;;;;21.50;20.50;;;;;9.69;51.83;101458.13;5017900;28;45503;-72
2023/03/05 10:19:31;;;;;;;;;21.25;18.50;;;;;9.71;51.81;101452.03;5018374;28;45227;-71
2023/03/05 10:22:16;;;;;;;;;16.75;16.00;;;;;9.74;51.84;101454.63;5016642;28;46274;-71
2023/03/05 10:24:48;;;;;;;;;17.50;15.00;;;;;9.76;51.58;101460.78;5017760;28;45542;-71
2023/03/05 10:27:25;;;;;;;;;21.00;16.50;;;;;9.76;51.49;101449.41;5017603;28;45296;-71
2023/03/05 10:30:11;;;;;;;;;18.50;15.75;;;;;9.79;51.48;101451.16;5017686;28;45227;-70
2023/03/05 10:33:05;;;;;;;;;16.50;15.50;;;;;9.83;51.61;101448.50;5016777;28;47918;-71
2023/03/05 10:35:47;;;;;;;;;20.00;17.00;;;;;9.87;51.43;101446.75;5018049;28;45273;-71
2023/03/05 10:38:43;;;;;;;;;2.50;2.00;;;;;9.88;51.63;101432.78;5018194;28;45164;-72
2023/03/05 10:41:19;;;;;;;;;22.50;16.75;;;;;9.92;51.41;101439.75;5015822;28;45231;-71
2023/03/05 10:44:03;;;;;;;;;15.00;12.75;;;;;9.92;51.51;101431.88;5017861;28;46320;-72
2023/03/05 10:46:34;;;;;;;;;19.25;17.50;;;;;9.97;51.70;101431.88;4991394;28;45369;-72
2023/03/05 10:49:14;;;;;;;;;22.75;16.75;;;;;10.00;51.53;101435.41;5017002;28;45278;-71
2023/03/05 10:51:49;;;;;;;;;13.75;12.75;;;;;10.02;51.41;101430.13;5017764;28;45182;-72
2023/03/05 10:54:31;;;;;;;;;21.75;16.25;;;;;10.04;51.28;101418.75;5017472;28;45420;-72
2023/03/05 10:57:08;;;;;;;;;12.00;12.00;;;;;10.06;51.35;101424.00;5017555;28;45223;-72
2023/03/05 10:59:33;;;;;;;;;15.50;13.25;;;;;10.08;51.40;101427.50;5017712;28;45365;-71
2023/03/05 11:02:07;;;;;;;;;15.75;13.50;;;;;10.09;51.12;101424.88;5011246;28;45161;-71
2023/03/05 11:04:37;;;;;;;;;17.25;14.00;;;;;10.12;51.12;101425.75;5006248;28;46041;-71
2023/03/05 11:07:16;;;;;;;;;15.75;14.25;;;;;10.12;51.28;101417.88;5017428;28;45470;-71
2023/03/05 11:10:12;;;;;;;;;15.50;15.00;;;;;10.13;51.27;101415.22;5017856;28;45340;-72
2023/03/05 11:12:38;;;;;;;;;19.25;15.75;;;;;10.16;51.19;101416.97;5017629;28;45682;-72
2023/03/05 11:15:09;;;;;;;;;14.50;12.50;;;;;10.17;51.06;101418.72;5017353;28;46467;-72
2023/03/05 11:17:37;;;;;;;;;18.25;16.50;;;;;10.17;51.13;101410.84;5016121;28;45261;-72
2023/03/05 11:20:26;;;;;;;;;21.00;17.75;;;;;10.16;50.95;101409.09;5017334;28;45312;-72